Terminal Aerodrome Forecast
Issued by NWS

Home | Current Version | Previous Version | Text Only | Print | Product List | Glossary On
Versions: 1 2 3 4 5 6 7 8 9 10 11 12 13 14 15 16
000
FTUS45 KRIW 180524
TAFCPR
TAF
KCPR 180524Z 1806/1906 25008KT P6SM VCSH BKN070
     FM181500 22015G25KT P6SM SCT070 BKN110
     FM181800 22020G30KT P6SM SCT070 BKN110
     FM190100 22011KT P6SM BKN100=

USA.gov is the U.S. government's official web portal to all federal, state and local government web resources and services.